Time;durP1;ratioP1;P1;durP2;ratioP2;P2;SDS_P1;SDS_P2;PMS_P1;PMS_P2;Temp;Humidity;BMP_temperature;BMP_pressure;BME280_temperature;BME280_humidity;BME280_pressure;Samples;Min_cycle;Max_cycle;Signal;HPM_P1;HPM_P2
2024/04/22 00:01:04;;;;;;;12.70;7.43;;;;;;;;;;5377476;26;20004;-66
2024/04/22 00:03:30;;;;;;;12.68;7.30;;;;;;;;;;5378949;26;20022;-67
2024/04/22 00:05:56;;;;;;;13.00;7.55;;;;;;;;;;5377464;26;20635;-67
2024/04/22 00:08:22;;;;;;;12.75;7.38;;;;;;;;;;5379379;26;20069;-66
2024/04/22 00:10:48;;;;;;;12.95;7.50;;;;;;;;;;5379175;26;20003;-65
2024/04/22 00:13:14;;;;;;;12.95;7.55;;;;;;;;;;5376727;26;20004;-66
2024/04/22 00:15:40;;;;;;;12.32;7.20;;;;;;;;;;5378995;26;20001;-66
2024/04/22 00:18:06;;;;;;;13.07;7.60;;;;;;;;;;5377079;26;20111;-66
2024/04/22 00:20:32;;;;;;;13.20;7.70;;;;;;;;;;5378282;26;20426;-67
2024/04/22 00:22:58;;;;;;;13.05;7.70;;;;;;;;;;5377892;26;20007;-65
2024/04/22 00:25:24;;;;;;;12.95;7.50;;;;;;;;;;5378685;26;19989;-67
2024/04/22 00:27:50;;;;;;;13.05;7.70;;;;;;;;;;5377069;26;20008;-66
2024/04/22 00:30:16;;;;;;;13.07;7.60;;;;;;;;;;5378469;26;20001;-66
2024/04/22 00:32:42;;;;;;;12.95;7.60;;;;;;;;;;5376760;26;19999;-65
2024/04/22 00:35:07;;;;;;;13.35;7.93;;;;;;;;;;5376141;26;20121;-67
2024/04/22 00:37:33;;;;;;;12.88;7.50;;;;;;;;;;5379143;26;20351;-66
2024/04/22 00:39:59;;;;;;;12.90;7.50;;;;;;;;;;5378754;26;20004;-67
2024/04/22 00:42:25;;;;;;;13.23;7.70;;;;;;;;;;5375856;26;20000;-66
2024/04/22 00:44:51;;;;;;;13.25;7.70;;;;;;;;;;5378364;26;20486;-68
2024/04/22 00:47:17;;;;;;;12.93;7.53;;;;;;;;;;5378681;26;20447;-66
2024/04/22 00:49:43;;;;;;;12.80;7.45;;;;;;;;;;5412845;26;20027;-66
2024/04/22 00:52:10;;;;;;;12.55;7.45;;;;;;;;;;5449401;26;20031;-66
2024/04/22 00:54:36;;;;;;;12.52;7.28;;;;;;;;;;5447947;26;20463;-66
2024/04/22 00:57:03;;;;;;;12.40;7.20;;;;;;;;;;5449745;26;20416;-66
2024/04/22 00:59:29;;;;;;;12.60;7.30;;;;;;;;;;5449955;26;19994;-67
2024/04/22 01:01:55;;;;;;;12.55;7.30;;;;;;;;;;5449730;26;20048;-67
2024/04/22 01:04:21;;;;;;;12.80;7.45;;;;;;;;;;5449275;26;19998;-67
2024/04/22 01:06:47;;;;;;;12.38;7.15;;;;;;;;;;5450059;26;20452;-67
2024/04/22 01:09:14;;;;;;;12.20;7.07;;;;;;;;;;5450228;26;19998;-67
2024/04/22 01:11:39;;;;;;;12.40;7.40;;;;;;;;;;5449493;26;20461;-66
2024/04/22 01:14:05;;;;;;;11.80;6.88;;;;;;;;;;5449209;26;20005;-67
2024/04/22 01:16:31;;;;;;;12.10;7.07;;;;;;;;;;5449422;26;19991;-67
2024/04/22 01:18:57;;;;;;;12.02;7.05;;;;;;;;;;5448909;26;20063;-67
2024/04/22 01:21:28;;;;;;;11.73;6.82;;;;;;;;;;5448788;26;20001;-67
2024/04/22 01:23:54;;;;;;;11.60;6.80;;;;;;;;;;5448495;26;20457;-67
2024/04/22 01:26:20;;;;;;;12.05;7.05;;;;;;;;;;5450646;26;20032;-67
2024/04/22 01:28:46;;;;;;;11.80;6.90;;;;;;;;;;5448850;26;20443;-67
2024/04/22 01:31:12;;;;;;;11.73;6.82;;;;;;;;;;5448812;26;20006;-67
2024/04/22 01:33:38;;;;;;;11.70;6.80;;;;;;;;;;5448602;26;20028;-66
2024/04/22 01:36:04;;;;;;;11.73;6.80;;;;;;;;;;5449627;26;19994;-67
2024/04/22 01:38:30;;;;;;;11.38;6.60;;;;;;;;;;5449124;26;19995;-67
2024/04/22 01:40:56;;;;;;;11.07;6.50;;;;;;;;;;5448855;26;20091;-68
2024/04/22 01:43:22;;;;;;;11.70;6.88;;;;;;;;;;5448497;26;20557;-67
2024/04/22 01:45:48;;;;;;;11.40;6.70;;;;;;;;;;5448817;26;19995;-67
2024/04/22 01:48:14;;;;;;;11.32;6.60;;;;;;;;;;5448639;26;20009;-67
2024/04/22 01:50:40;;;;;;;11.20;6.50;;;;;;;;;;5449168;26;20601;-66
2024/04/22 01:53:06;;;;;;;11.15;6.50;;;;;;;;;;5448281;26;19998;-66
2024/04/22 01:55:32;;;;;;;10.95;6.40;;;;;;;;;;5448984;26;19991;-67
2024/04/22 01:57:58;;;;;;;11.00;6.43;;;;;;;;;;5448870;26;20018;-67
2024/04/22 02:00:24;;;;;;;11.10;6.50;;;;;;;;;;5449577;26;20336;-67
2024/04/22 02:02:50;;;;;;;11.70;7.30;;;;;;;;;;5449138;26;20008;-67
2024/04/22 02:05:16;;;;;;;10.70;6.30;;;;;;;;;;5447917;26;19995;-67
2024/04/22 02:07:42;;;;;;;10.88;6.35;;;;;;;;;;5447110;26;19999;-67
2024/04/22 02:10:09;;;;;;;10.55;6.22;;;;;;;;;;5429097;26;20014;-67
2024/04/22 02:12:35;;;;;;;10.57;6.20;;;;;;;;;;5413337;26;19999;-67
2024/04/22 02:15:01;;;;;;;10.90;6.38;;;;;;;;;;5412356;26;20460;-67
2024/04/22 02:17:27;;;;;;;10.80;6.30;;;;;;;;;;5412784;26;19991;-66
2024/04/22 02:19:53;;;;;;;10.57;6.18;;;;;;;;;;5412817;26;20018;-67
2024/04/22 02:22:19;;;;;;;10.77;6.30;;;;;;;;;;5412353;26;20488;-67
2024/04/22 02:24:45;;;;;;;10.73;6.30;;;;;;;;;;5412120;26;19992;-67
2024/04/22 02:27:11;;;;;;;11.00;6.40;;;;;;;;;;5412704;26;20002;-67
2024/04/22 02:29:37;;;;;;;10.85;6.35;;;;;;;;;;5412692;26;19992;-66
2024/04/22 02:32:03;;;;;;;10.85;6.35;;;;;;;;;;5412464;26;20406;-69
2024/04/22 02:34:28;;;;;;;11.18;6.50;;;;;;;;;;5412391;26;20003;-67
2024/04/22 02:36:54;;;;;;;11.23;6.55;;;;;;;;;;5412426;26;20441;-67
2024/04/22 02:39:20;;;;;;;11.02;6.50;;;;;;;;;;5410265;26;20003;-67
2024/04/22 02:41:46;;;;;;;11.35;6.60;;;;;;;;;;5410142;26;20079;-66
2024/04/22 02:44:12;;;;;;;11.32;6.65;;;;;;;;;;5411910;26;20043;-67
2024/04/22 02:46:38;;;;;;;11.70;6.90;;;;;;;;;;5412515;26;19996;-66
2024/04/22 02:49:04;;;;;;;11.10;6.50;;;;;;;;;;5412506;26;20612;-67
2024/04/22 02:51:30;;;;;;;11.65;6.78;;;;;;;;;;5412595;26;20011;-67
2024/04/22 02:53:56;;;;;;;11.40;6.70;;;;;;;;;;5411174;26;20007;-67
2024/04/22 02:56:22;;;;;;;11.43;6.70;;;;;;;;;;5412427;26;20073;-67
2024/04/22 02:58:48;;;;;;;10.95;6.40;;;;;;;;;;5412057;26;19999;-67
2024/04/22 03:01:14;;;;;;;11.30;6.63;;;;;;;;;;5410378;26;20015;-67
2024/04/22 03:03:40;;;;;;;11.10;6.50;;;;;;;;;;5412097;26;20445;-67
2024/04/22 03:06:06;;;;;;;11.32;6.60;;;;;;;;;;5412608;26;19996;-67
2024/04/22 03:08:32;;;;;;;11.05;6.45;;;;;;;;;;5411853;26;20003;-67
2024/04/22 03:10:58;;;;;;;10.93;6.38;;;;;;;;;;5411964;26;20359;-67
2024/04/22 03:13:25;;;;;;;11.30;6.60;;;;;;;;;;5412284;26;19996;-67
2024/04/22 03:15:55;;;;;;;11.27;6.60;;;;;;;;;;5411757;26;20461;-66
2024/04/22 03:18:21;;;;;;;11.40;6.70;;;;;;;;;;5413617;26;19995;-67
2024/04/22 03:20:47;;;;;;;11.00;6.43;;;;;;;;;;5415134;26;20003;-66
2024/04/22 03:23:13;;;;;;;11.05;6.50;;;;;;;;;;5414814;26;19996;-67
2024/04/22 03:25:39;;;;;;;11.30;6.60;;;;;;;;;;5415091;26;20062;-67
2024/04/22 03:28:05;;;;;;;11.43;6.68;;;;;;;;;;5415450;26;20006;-67
2024/04/22 03:30:31;;;;;;;11.38;6.63;;;;;;;;;;5415270;26;20007;-66
2024/04/22 03:32:58;;;;;;;11.27;6.60;;;;;;;;;;5412867;26;20006;-66
2024/04/22 03:35:24;;;;;;;11.38;6.60;;;;;;;;;;5414294;26;20442;-66
2024/04/22 03:37:50;;;;;;;11.27;6.57;;;;;;;;;;5414073;26;20046;-66
2024/04/22 03:40:16;;;;;;;11.55;6.75;;;;;;;;;;5414078;26;20453;-66
2024/04/22 03:42:42;;;;;;;11.23;6.53;;;;;;;;;;5413841;26;19995;-66
2024/04/22 03:45:08;;;;;;;11.60;6.75;;;;;;;;;;5414287;26;19987;-66
2024/04/22 03:50:18;;;;;;;11.10;6.50;;;;;;;;;;5413780;26;20395;-67
2024/04/22 03:52:44;;;;;;;11.00;6.47;;;;;;;;;;5412483;26;20453;-67
2024/04/22 03:55:10;;;;;;;10.98;6.40;;;;;;;;;;5412482;26;19999;-67
2024/04/22 03:57:36;;;;;;;11.98;7.00;;;;;;;;;;5412865;26;20461;-68
2024/04/22 04:00:02;;;;;;;12.27;7.15;;;;;;;;;;5412271;26;19995;-67
2024/04/22 04:02:28;;;;;;;11.98;6.90;;;;;;;;;;5414658;26;20068;-67
2024/04/22 04:04:54;;;;;;;12.75;7.40;;;;;;;;;;5414461;26;19999;-67
2024/04/22 04:07:20;;;;;;;12.70;7.30;;;;;;;;;;5448659;26;19999;-66
2024/04/22 04:09:46;;;;;;;12.43;7.20;;;;;;;;;;5450351;26;20006;-67
2024/04/22 04:12:12;;;;;;;11.25;6.53;;;;;;;;;;5448085;26;20006;-67
2024/04/22 04:14:38;;;;;;;12.10;7.07;;;;;;;;;;5449745;26;20002;-67
2024/04/22 04:17:04;;;;;;;11.57;6.72;;;;;;;;;;5450440;26;20496;-67
2024/04/22 04:19:30;;;;;;;11.48;6.70;;;;;;;;;;5450216;26;20001;-67
2024/04/22 04:21:56;;;;;;;11.30;6.60;;;;;;;;;;5449564;26;19991;-67
2024/04/22 04:24:22;;;;;;;11.20;6.50;;;;;;;;;;5449980;26;20067;-67
2024/04/22 04:26:49;;;;;;;11.05;6.47;;;;;;;;;;5450448;26;20437;-67
2024/04/22 04:29:15;;;;;;;11.10;6.50;;;;;;;;;;5448096;26;19990;-67
2024/04/22 04:31:41;;;;;;;11.15;6.47;;;;;;;;;;5450311;26;20005;-67
2024/04/22 04:34:07;;;;;;;10.27;6.07;;;;;;;;;;5447740;26;19994;-66
2024/04/22 04:36:33;;;;;;;10.38;6.10;;;;;;;;;;5447138;26;20496;-67
2024/04/22 04:38:59;;;;;;;11.02;6.43;;;;;;;;;;5447218;26;20003;-67
2024/04/22 04:41:25;;;;;;;10.88;6.35;;;;;;;;;;5448883;26;20336;-66
2024/04/22 04:43:51;;;;;;;10.60;6.20;;;;;;;;;;5448632;26;20005;-67
2024/04/22 04:46:17;;;;;;;10.55;6.20;;;;;;;;;;5421167;26;20539;-67
2024/04/22 04:48:43;;;;;;;10.90;6.38;;;;;;;;;;5411525;26;20000;-67
2024/04/22 04:51:09;;;;;;;10.98;6.40;;;;;;;;;;5414355;26;20306;-67
2024/04/22 04:53:35;;;;;;;11.77;6.80;;;;;;;;;;5423459;26;19995;-66
2024/04/22 04:56:01;;;;;;;10.80;6.35;;;;;;;;;;5450108;26;20516;-67
2024/04/22 04:58:27;;;;;;;10.55;6.22;;;;;;;;;;5448002;26;19998;-66
2024/04/22 05:00:53;;;;;;;13.30;10.32;;;;;;;;;;5449484;26;20000;-67
2024/04/22 05:03:19;;;;;;;12.20;7.10;;;;;;;;;;5446767;26;20006;-67
2024/04/22 05:05:45;;;;;;;12.15;7.05;;;;;;;;;;5449263;26;20095;-67
2024/04/22 05:08:11;;;;;;;12.05;7.00;;;;;;;;;;5449834;26;19991;-67
2024/04/22 05:10:37;;;;;;;12.73;7.43;;;;;;;;;;5439430;26;20020;-67
2024/04/22 05:13:03;;;;;;;13.20;7.72;;;;;;;;;;5412114;26;19995;-67
2024/04/22 05:15:29;;;;;;;13.07;7.68;;;;;;;;;;5412713;26;20008;-67
2024/04/22 05:17:55;;;;;;;13.18;7.78;;;;;;;;;;5413184;26;20041;-67
2024/04/22 05:20:21;;;;;;;13.35;7.95;;;;;;;;;;5412491;26;20534;-65
2024/04/22 05:22:47;;;;;;;13.18;7.80;;;;;;;;;;5411075;26;20007;-66
2024/04/22 05:25:13;;;;;;;13.27;8.02;;;;;;;;;;5412631;26;20291;-67
2024/04/22 05:27:39;;;;;;;13.00;7.47;;;;;;;;;;5411110;26;20068;-67
2024/04/22 05:30:05;;;;;;;13.30;7.80;;;;;;;;;;5412433;26;20469;-67
2024/04/22 05:32:32;;;;;;;13.68;8.70;;;;;;;;;;5412944;26;19995;-66
2024/04/22 05:37:42;;;;;;;13.70;8.90;;;;;;;;;;5413149;26;20010;-67
2024/04/22 05:40:08;;;;;;;13.93;9.50;;;;;;;;;;5412025;26;19992;-67
2024/04/22 05:42:34;;;;;;;13.68;8.82;;;;;;;;;;5412444;26;20405;-68
2024/04/22 05:45:00;;;;;;;13.57;8.70;;;;;;;;;;5412457;26;19995;-66
2024/04/22 05:47:26;;;;;;;13.32;7.95;;;;;;;;;;5412679;26;20160;-67
2024/04/22 05:49:52;;;;;;;13.52;8.40;;;;;;;;;;5412546;26;20095;-67
2024/04/22 05:52:20;;;;;;;13.77;9.18;;;;;;;;;;5412744;26;19996;-68
2024/04/22 05:54:45;;;;;;;13.90;9.57;;;;;;;;;;5412379;26;20559;-65
2024/04/22 05:57:12;;;;;;;14.00;8.90;;;;;;;;;;5412305;26;19999;-66
2024/04/22 05:59:38;;;;;;;13.80;9.35;;;;;;;;;;5412776;26;20396;-67
2024/04/22 06:02:04;;;;;;;13.63;8.73;;;;;;;;;;5412666;26;19995;-66
2024/04/22 06:04:31;;;;;;;14.00;9.80;;;;;;;;;;5412018;26;20018;-66
2024/04/22 06:06:57;;;;;;;14.00;9.43;;;;;;;;;;5412856;26;19996;-66
2024/04/22 06:09:23;;;;;;;13.82;9.18;;;;;;;;;;5412109;26;19992;-66
2024/04/22 06:11:49;;;;;;;13.55;8.48;;;;;;;;;;5417434;26;20529;-66
2024/04/22 06:14:15;;;;;;;13.90;9.38;;;;;;;;;;5447112;26;20058;-67
2024/04/22 06:16:42;;;;;;;13.63;8.85;;;;;;;;;;5447209;26;20002;-67
2024/04/22 06:19:08;;;;;;;13.48;8.57;;;;;;;;;;5447630;26;20028;-68
2024/04/22 06:21:34;;;;;;;13.57;8.48;;;;;;;;;;5447796;26;20063;-64
2024/04/22 06:24:00;;;;;;;13.43;8.00;;;;;;;;;;5447614;26;19999;-64
2024/04/22 06:26:26;;;;;;;13.60;8.63;;;;;;;;;;5446341;26;20022;-64
2024/04/22 06:28:53;;;;;;;13.50;8.38;;;;;;;;;;5447449;26;19995;-63
2024/04/22 06:31:19;;;;;;;13.48;8.38;;;;;;;;;;5446571;26;20372;-65
2024/04/22 06:33:45;;;;;;;13.60;8.80;;;;;;;;;;5446736;26;20005;-64
2024/04/22 06:36:11;;;;;;;13.38;8.07;;;;;;;;;;5447048;26;19998;-66
2024/04/22 06:38:37;;;;;;;13.57;8.60;;;;;;;;;;5439615;26;19996;-63
2024/04/22 06:41:04;;;;;;;13.80;9.27;;;;;;;;;;5410477;26;20505;-64
2024/04/22 06:43:30;;;;;;;13.73;9.02;;;;;;;;;;5409994;26;20011;-63
2024/04/22 06:45:56;;;;;;;13.57;8.43;;;;;;;;;;5410804;26;19999;-64
2024/04/22 06:48:23;;;;;;;13.70;8.90;;;;;;;;;;5411102;26;20007;-66
2024/04/22 06:50:51;;;;;;;13.55;8.50;;;;;;;;;;5411181;26;20000;-62
2024/04/22 06:53:18;;;;;;;13.70;8.70;;;;;;;;;;5408447;26;19991;-63
2024/04/22 06:55:44;;;;;;;13.68;8.98;;;;;;;;;;5410985;26;20329;-63
2024/04/22 06:58:10;;;;;;;13.23;7.80;;;;;;;;;;5410985;26;20000;-64
2024/04/22 07:00:36;;;;;;;13.20;7.75;;;;;;;;;;5410891;26;20006;-62
2024/04/22 07:03:02;;;;;;;13.57;8.57;;;;;;;;;;5410303;26;20012;-62
2024/04/22 07:05:28;;;;;;;13.45;8.25;;;;;;;;;;5410148;26;20076;-61
2024/04/22 07:07:55;;;;;;;13.40;8.00;;;;;;;;;;5408757;26;19988;-63
2024/04/22 07:10:21;;;;;;;13.43;8.15;;;;;;;;;;5411013;26;19992;-64
2024/04/22 07:12:47;;;;;;;13.40;8.00;;;;;;;;;;5410468;26;20064;-64
2024/04/22 07:15:13;;;;;;;13.40;8.18;;;;;;;;;;5410409;26;20002;-64
2024/04/22 07:17:42;;;;;;;13.13;7.68;;;;;;;;;;5410748;26;19995;-61
2024/04/22 07:20:08;;;;;;;13.57;8.57;;;;;;;;;;5411092;26;20429;-65
2024/04/22 07:22:37;;;;;;;13.52;8.40;;;;;;;;;;5410437;26;19991;-64
2024/04/22 07:25:03;;;;;;;13.25;7.80;;;;;;;;;;5410846;26;20003;-62
2024/04/22 07:27:30;;;;;;;13.27;7.88;;;;;;;;;;5411169;26;20645;-63
2024/04/22 07:29:58;;;;;;;13.35;8.00;;;;;;;;;;5410875;26;20072;-62
2024/04/22 07:32:24;;;;;;;13.52;8.32;;;;;;;;;;5410908;26;20010;-61
2024/04/22 07:34:50;;;;;;;13.35;7.97;;;;;;;;;;5409894;26;20024;-61
2024/04/22 07:37:23;;;;;;;13.57;8.60;;;;;;;;;;5410576;26;20464;-63
2024/04/22 07:39:50;;;;;;;13.60;8.65;;;;;;;;;;5410139;26;20014;-62
2024/04/22 07:42:17;;;;;;;13.68;8.80;;;;;;;;;;5410550;26;20082;-60
2024/04/22 07:44:43;;;;;;;13.57;8.57;;;;;;;;;;5410558;26;20000;-63
2024/04/22 07:47:08;;;;;;;13.57;8.60;;;;;;;;;;5411561;26;20354;-61
2024/04/22 07:49:34;;;;;;;13.70;9.10;;;;;;;;;;5410693;26;20000;-62
2024/04/22 07:52:00;;;;;;;13.55;8.65;;;;;;;;;;5409966;26;20638;-61
2024/04/22 07:54:28;;;;;;;13.63;8.88;;;;;;;;;;5409464;26;20022;-61
2024/04/22 07:56:54;;;;;;;13.63;8.60;;;;;;;;;;5409895;26;20087;-61
2024/04/22 07:59:21;;;;;;;13.90;9.40;;;;;;;;;;5409066;26;20496;-60
2024/04/22 08:01:47;;;;;;;13.63;8.85;;;;;;;;;;5409568;26;19996;-61
2024/04/22 08:04:13;;;;;;;13.48;8.55;;;;;;;;;;5411555;26;20018;-60
2024/04/22 08:06:40;;;;;;;13.52;8.38;;;;;;;;;;5413474;26;20453;-59
2024/04/22 08:09:07;;;;;;;13.60;8.60;;;;;;;;;;5413285;26;20045;-63
2024/04/22 08:11:33;;;;;;;13.73;9.02;;;;;;;;;;5413407;26;19996;-57
2024/04/22 08:14:00;;;;;;;13.90;9.50;;;;;;;;;;5410932;26;20410;-62
2024/04/22 08:16:25;;;;;;;13.70;9.00;;;;;;;;;;5411772;26;20571;-63
2024/04/22 08:18:51;;;;;;;13.60;8.70;;;;;;;;;;5412381;26;19995;-62
2024/04/22 08:21:17;;;;;;;13.48;8.25;;;;;;;;;;5412897;26;20399;-62
2024/04/22 08:23:43;;;;;;;13.80;9.25;;;;;;;;;;5413036;26;20045;-62
2024/04/22 08:26:10;;;;;;;13.68;8.85;;;;;;;;;;5412973;26;19991;-63
2024/04/22 08:28:36;;;;;;;13.75;9.20;;;;;;;;;;5413251;26;19995;-64
2024/04/22 08:31:02;;;;;;;13.50;8.45;;;;;;;;;;5413380;26;20405;-61
2024/04/22 08:33:28;;;;;;;14.07;9.90;;;;;;;;;;5412527;26;19995;-63
2024/04/22 08:35:56;;;;;;;13.90;9.40;;;;;;;;;;5413136;26;20325;-63
2024/04/22 08:38:22;;;;;;;13.98;9.60;;;;;;;;;;5412327;26;20019;-64
2024/04/22 08:40:48;;;;;;;13.95;9.70;;;;;;;;;;5413061;26;20032;-62
2024/04/22 08:43:14;;;;;;;13.90;9.50;;;;;;;;;;5411559;26;20383;-64
2024/04/22 08:45:44;;;;;;;13.60;8.70;;;;;;;;;;5413469;26;19998;-63
2024/04/22 08:48:10;;;;;;;13.85;9.30;;;;;;;;;;5413204;26;20006;-66
2024/04/22 08:50:40;;;;;;;13.93;9.70;;;;;;;;;;5412596;26;20010;-64
2024/04/22 08:53:07;;;;;;;13.90;9.50;;;;;;;;;;5410097;26;19995;-64
2024/04/22 08:55:34;;;;;;;13.68;9.07;;;;;;;;;;5412623;26;20006;-65
2024/04/22 08:58:00;;;;;;;13.90;9.52;;;;;;;;;;5412808;26;20094;-63
2024/04/22 09:00:26;;;;;;;13.65;8.93;;;;;;;;;;5412787;26;20008;-64
2024/04/22 09:02:52;;;;;;;13.57;8.80;;;;;;;;;;5412295;26;19996;-64
2024/04/22 09:05:18;;;;;;;14.02;9.93;;;;;;;;;;5411457;26;19995;-63
2024/04/22 09:07:51;;;;;;;14.10;10.00;;;;;;;;;;5412921;26;20039;-62
2024/04/22 09:10:17;;;;;;;14.05;9.98;;;;;;;;;;5412516;26;20020;-64
2024/04/22 09:12:43;;;;;;;14.20;10.30;;;;;;;;;;5410398;26;20003;-64
2024/04/22 09:15:09;;;;;;;13.95;9.93;;;;;;;;;;5411110;26;19995;-63
2024/04/22 09:17:38;;;;;;;14.13;10.18;;;;;;;;;;5411433;26;20045;-64
2024/04/22 09:20:05;;;;;;;14.00;9.90;;;;;;;;;;5412630;26;20048;-65
2024/04/22 09:22:31;;;;;;;14.20;10.25;;;;;;;;;;5411921;26;19991;-63
2024/04/22 09:24:57;;;;;;;14.10;10.10;;;;;;;;;;5411216;26;20079;-63
2024/04/22 09:27:26;;;;;;;14.05;9.95;;;;;;;;;;5412281;26;20007;-63
2024/04/22 09:29:56;;;;;;;14.15;10.27;;;;;;;;;;5411878;26;19996;-64
2024/04/22 09:32:23;;;;;;;14.20;10.25;;;;;;;;;;5411652;26;19992;-63
2024/04/22 09:34:50;;;;;;;14.10;10.10;;;;;;;;;;5411586;26;20010;-64
2024/04/22 09:37:16;;;;;;;14.18;10.30;;;;;;;;;;5411958;26;20011;-63
2024/04/22 09:39:43;;;;;;;14.00;9.95;;;;;;;;;;5412351;26;19999;-63
2024/04/22 09:42:10;;;;;;;14.07;10.02;;;;;;;;;;5412137;26;20000;-63
2024/04/22 09:44:37;;;;;;;14.00;9.80;;;;;;;;;;5411444;26;20006;-65
2024/04/22 09:47:04;;;;;;;14.02;9.95;;;;;;;;;;5412221;26;20006;-64
2024/04/22 09:49:32;;;;;;;13.77;9.10;;;;;;;;;;5412073;26;19995;-62
2024/04/22 09:51:59;;;;;;;13.77;9.13;;;;;;;;;;5411397;26;20346;-62
2024/04/22 09:54:26;;;;;;;13.75;9.10;;;;;;;;;;5411898;26;19999;-64
2024/04/22 09:56:52;;;;;;;13.68;8.93;;;;;;;;;;5412717;26;20449;-64
2024/04/22 09:59:19;;;;;;;13.77;9.23;;;;;;;;;;5412273;26;20321;-64
2024/04/22 10:01:46;;;;;;;14.00;9.60;;;;;;;;;;5411817;26;20003;-63
2024/04/22 10:04:13;;;;;;;13.98;9.88;;;;;;;;;;5411362;26;20068;-64
2024/04/22 10:06:39;;;;;;;13.93;9.73;;;;;;;;;;5412224;26;19995;-64
2024/04/22 10:09:05;;;;;;;14.13;10.25;;;;;;;;;;5412990;26;20011;-63
2024/04/22 10:11:32;;;;;;;14.10;10.30;;;;;;;;;;5412014;26;20074;-62
2024/04/22 10:14:15;;;;;;;13.98;9.82;;;;;;;;;;5411487;26;19998;-64
2024/04/22 10:16:52;;;;;;;14.13;10.27;;;;;;;;;;5410779;26;20068;-62
2024/04/22 10:19:19;;;;;;;14.07;9.93;;;;;;;;;;5410996;26;20007;-64
2024/04/22 10:21:49;;;;;;;14.00;9.90;;;;;;;;;;5411452;26;19996;-65
2024/04/22 10:24:15;;;;;;;14.05;10.05;;;;;;;;;;5410606;26;20013;-64
2024/04/22 10:26:42;;;;;;;14.13;10.35;;;;;;;;;;5410831;26;19998;-65
2024/04/22 10:29:08;;;;;;;13.98;9.70;;;;;;;;;;5411198;26;20072;-65
2024/04/22 10:31:36;;;;;;;13.88;9.55;;;;;;;;;;5411895;26;19995;-64
2024/04/22 10:34:02;;;;;;;14.18;10.20;;;;;;;;;;5411610;26;20077;-64
2024/04/22 10:36:28;;;;;;;14.10;9.95;;;;;;;;;;5411719;26;19995;-65
2024/04/22 10:38:54;;;;;;;13.98;9.68;;;;;;;;;;5411243;26;20408;-64
2024/04/22 10:41:20;;;;;;;13.90;9.60;;;;;;;;;;5410691;26;19995;-64
2024/04/22 10:43:47;;;;;;;13.85;9.48;;;;;;;;;;5409667;26;20002;-64
2024/04/22 10:46:13;;;;;;;13.80;9.30;;;;;;;;;;5411396;26;20002;-66
2024/04/22 10:48:39;;;;;;;13.80;9.38;;;;;;;;;;5411356;26;20020;-65
2024/04/22 10:51:05;;;;;;;13.93;9.45;;;;;;;;;;5410595;26;20448;-65
2024/04/22 10:53:31;;;;;;;14.02;10.00;;;;;;;;;;5410387;26;20002;-65
2024/04/22 10:55:57;;;;;;;14.05;10.00;;;;;;;;;;5410635;26;19995;-66
2024/04/22 10:58:23;;;;;;;15.27;10.00;;;;;;;;;;5409415;26;20004;-66
2024/04/22 11:00:49;;;;;;;13.95;9.85;;;;;;;;;;5411070;26;20326;-64
2024/04/22 11:03:15;;;;;;;14.00;9.90;;;;;;;;;;5410737;26;20454;-64
2024/04/22 11:05:46;;;;;;;14.23;10.55;;;;;;;;;;5410701;26;20046;-64
2024/04/22 11:08:12;;;;;;;14.23;10.60;;;;;;;;;;5410589;26;19999;-64
2024/04/22 11:10:38;;;;;;;14.35;10.80;;;;;;;;;;5424575;26;20352;-65
2024/04/22 11:13:04;;;;;;;14.40;10.93;;;;;;;;;;5445343;26;19999;-64
2024/04/22 11:15:30;;;;;;;14.30;10.60;;;;;;;;;;5446313;26;20334;-64
2024/04/22 11:18:07;;;;;;;14.27;10.63;;;;;;;;;;5446348;26;19990;-65
2024/04/22 11:20:33;;;;;;;14.48;11.10;;;;;;;;;;5446091;26;20006;-63
2024/04/22 11:22:59;;;;;;;14.38;10.88;;;;;;;;;;5446204;26;20006;-64
2024/04/22 11:25:25;;;;;;;14.50;11.40;;;;;;;;;;5446079;26;20019;-63
2024/04/22 11:27:51;;;;;;;14.38;10.80;;;;;;;;;;5445802;26;19995;-65
2024/04/22 11:30:17;;;;;;;14.25;10.50;;;;;;;;;;5446057;26;20005;-60
2024/04/22 11:32:43;;;;;;;14.40;11.00;;;;;;;;;;5434639;26;20085;-64
2024/04/22 11:35:09;;;;;;;14.40;11.05;;;;;;;;;;5409646;26;20327;-65
2024/04/22 11:37:36;;;;;;;14.38;10.88;;;;;;;;;;5410601;26;20006;-63
2024/04/22 11:40:02;;;;;;;14.48;11.10;;;;;;;;;;5413010;26;20039;-65
2024/04/22 11:42:28;;;;;;;14.20;10.60;;;;;;;;;;5413252;26;20072;-65
2024/04/22 11:44:54;;;;;;;14.45;10.98;;;;;;;;;;5413508;26;20000;-65
2024/04/22 11:47:26;;;;;;;14.50;11.15;;;;;;;;;;5413619;26;20037;-65
2024/04/22 11:49:53;;;;;;;14.60;11.40;;;;;;;;;;5414222;26;20380;-65
2024/04/22 11:52:19;;;;;;;14.30;10.70;;;;;;;;;;5413180;26;19995;-65
2024/04/22 11:54:45;;;;;;;14.40;10.95;;;;;;;;;;5413719;26;20000;-65
2024/04/22 11:57:11;;;;;;;14.63;11.55;;;;;;;;;;5413788;26;20090;-63
2024/04/22 11:59:37;;;;;;;14.60;11.27;;;;;;;;;;5414035;26;19988;-64
2024/04/22 12:02:04;;;;;;;14.57;11.38;;;;;;;;;;5413976;26;20005;-65
2024/04/22 12:04:30;;;;;;;14.45;11.07;;;;;;;;;;5412884;26;20057;-64
2024/04/22 12:06:56;;;;;;;14.50;11.35;;;;;;;;;;5413496;26;20671;-66
2024/04/22 12:09:22;;;;;;;14.88;12.07;;;;;;;;;;5413704;26;20064;-65
2024/04/22 12:11:48;;;;;;;14.60;11.55;;;;;;;;;;5413038;26;20002;-65
2024/04/22 12:14:13;;;;;;;15.15;11.88;;;;;;;;;;5412727;26;19992;-65
2024/04/22 12:16:39;;;;;;;14.45;11.20;;;;;;;;;;5412826;26;19991;-65
2024/04/22 12:19:05;;;;;;;14.40;10.90;;;;;;;;;;5413298;26;20007;-61
2024/04/22 12:21:31;;;;;;;14.43;11.05;;;;;;;;;;5413251;26;20592;-68
2024/04/22 12:23:57;;;;;;;14.68;11.70;;;;;;;;;;5413404;26;20064;-64
2024/04/22 12:26:23;;;;;;;14.90;12.10;;;;;;;;;;5413638;26;20068;-64
2024/04/22 12:28:49;;;;;;;14.48;11.05;;;;;;;;;;5413746;26;20004;-64
2024/04/22 12:31:15;;;;;;;14.40;10.98;;;;;;;;;;5413491;26;20023;-64
2024/04/22 12:33:41;;;;;;;14.25;10.60;;;;;;;;;;5412742;26;19999;-65
2024/04/22 12:36:07;;;;;;;14.45;11.05;;;;;;;;;;5413110;26;19991;-64
2024/04/22 12:38:33;;;;;;;14.50;11.27;;;;;;;;;;5418747;26;21591;-60
2024/04/22 12:40:59;;;;;;;14.35;10.80;;;;;;;;;;5428329;26;19992;-67
2024/04/22 12:43:25;;;;;;;14.50;11.20;;;;;;;;;;5425472;26;20065;-63
2024/04/22 12:45:54;;;;;;;14.52;11.27;;;;;;;;;;5412733;26;19991;-64
2024/04/22 12:51:06;;;;;;;14.55;11.23;;;;;;;;;;5413634;26;20018;-66
2024/04/22 12:53:32;;;;;;;14.38;10.93;;;;;;;;;;5410000;26;20000;-65
2024/04/22 12:55:58;;;;;;;14.23;10.52;;;;;;;;;;5412896;26;20452;-64
2024/04/22 12:58:24;;;;;;;14.20;10.50;;;;;;;;;;5411028;26;20022;-64
2024/04/22 13:00:50;;;;;;;14.27;10.57;;;;;;;;;;5413192;26;19987;-63
2024/04/22 13:03:16;;;;;;;14.50;10.85;;;;;;;;;;5412092;26;19991;-62
2024/04/22 13:05:42;;;;;;;14.30;10.80;;;;;;;;;;5412991;26;19996;-63
2024/04/22 13:08:08;;;;;;;14.40;11.10;;;;;;;;;;5413111;26;19999;-64
2024/04/22 13:10:34;;;;;;;14.50;11.20;;;;;;;;;;5412596;26;20514;-64
2024/04/22 13:13:00;;;;;;;14.60;11.70;;;;;;;;;;5410380;26;19996;-68
2024/04/22 13:15:26;;;;;;;14.60;11.50;;;;;;;;;;5413059;26;20069;-64
2024/04/22 13:17:52;;;;;;;14.50;11.40;;;;;;;;;;5413001;26;20378;-64
2024/04/22 13:20:18;;;;;;;14.80;12.00;;;;;;;;;;5411561;26;20088;-64
2024/04/22 13:22:44;;;;;;;14.80;11.95;;;;;;;;;;5412007;26;20025;-64
2024/04/22 13:25:10;;;;;;;24.58;22.45;;;;;;;;;;5411726;26;20000;-64
2024/04/22 13:27:36;;;;;;;14.75;11.98;;;;;;;;;;5413029;26;19995;-64
2024/04/22 13:30:08;;;;;;;14.90;12.10;;;;;;;;;;5412222;26;20071;-64
2024/04/22 13:32:34;;;;;;;14.77;11.88;;;;;;;;;;5411773;26;20036;-65
2024/04/22 13:35:00;;;;;;;14.68;11.60;;;;;;;;;;5411648;26;19998;-67
2024/04/22 13:37:26;;;;;;;14.70;11.77;;;;;;;;;;5412197;26;20454;-63
2024/04/22 13:39:52;;;;;;;14.70;11.70;;;;;;;;;;5411993;26;20012;-60
2024/04/22 13:42:18;;;;;;;14.63;11.60;;;;;;;;;;5411297;26;20056;-63
2024/04/22 13:44:44;;;;;;;14.70;11.60;;;;;;;;;;5411286;26;19991;-62
2024/04/22 13:47:10;;;;;;;14.70;11.75;;;;;;;;;;5412170;26;19995;-64
2024/04/22 13:49:36;;;;;;;14.60;11.52;;;;;;;;;;5411495;26;20492;-63
2024/04/22 13:52:03;;;;;;;14.70;11.85;;;;;;;;;;5411913;26;19991;-64
2024/04/22 13:54:29;;;;;;;14.90;12.25;;;;;;;;;;5412198;26;20082;-64
2024/04/22 13:56:55;;;;;;;14.70;11.80;;;;;;;;;;5412449;26;19999;-63
2024/04/22 13:59:21;;;;;;;14.80;12.00;;;;;;;;;;5411892;26;19992;-63
2024/04/22 14:01:47;;;;;;;14.60;11.52;;;;;;;;;;5410290;26;20514;-63
2024/04/22 14:04:12;;;;;;;14.75;12.02;;;;;;;;;;5410494;26;19998;-64
2024/04/22 14:06:38;;;;;;;14.90;12.07;;;;;;;;;;5411865;26;19999;-65
2024/04/22 14:09:05;;;;;;;14.70;11.85;;;;;;;;;;5411946;26;19992;-64
2024/04/22 14:11:31;;;;;;;14.80;12.00;;;;;;;;;;5411709;26;20009;-65
2024/04/22 14:13:57;;;;;;;14.60;11.60;;;;;;;;;;5411459;26;20031;-64
2024/04/22 14:16:23;;;;;;;15.25;12.10;;;;;;;;;;5412034;26;20038;-64
2024/04/22 14:18:52;;;;;;;14.60;11.63;;;;;;;;;;5411807;26;19987;-64
2024/04/22 14:21:18;;;;;;;14.90;11.90;;;;;;;;;;5409588;26;20010;-64
2024/04/22 14:23:44;;;;;;;14.50;11.25;;;;;;;;;;5410145;26;19995;-64
2024/04/22 14:26:10;;;;;;;21.30;13.55;;;;;;;;;;5409053;26;19999;-63
2024/04/22 14:28:36;;;;;;;14.60;11.40;;;;;;;;;;5409745;26;20006;-64